Date,TemperatureHighF,TemperatureAvgF,TemperatureLowF,DewpointHighF,DewpointAvgF,DewpointLowF,HumidityHigh,HumidityAvg,HumidityLow,PressureMaxIn,PressureMinIn,WindSpeedMaxMPH,WindSpeedAvgMPH,GustSpeedMaxMPH,PrecipitationSumIn
2013-1-1,39,31,24,38,29,21,97,92,85,30.27,30.04,13,2,16,0.01
2013-1-2,40,30,20,30,25,18,94,82,66,30.28,30.17,10,0,11,0.00
2013-1-3,48,34,27,32,27,25,93,76,46,30.44,30.27,8,0,11,0.00
2013-1-4,50,35,24,30,25,22,92,70,39,30.44,30.30,14,1,15,0.00
2013-1-5,49,41,35,35,32,26,83,71,53,30.30,30.15,14,1,19,0.00
2013-1-6,53,39,32,31,24,21,78,57,31,30.40,30.25,12,0,16,0.00
2013-1-7,52,39,25,31,27,21,84,63,41,30.33,30.09,16,1,17,0.00
2013-1-8,57,44,32,46,37,27,96,77,48,30.17,30.02,19,1,19,0.50
2013-1-9,54,50,46,48,45,41,97,85,62,30.31,30.14,13,1,14,0.06
2013-1-10,56,52,49,54,50,45,98,92,78,30.14,29.80,12,1,14,0.23
2013-1-11,70,57,46,50,47,44,96,72,43,29.85,29.68,26,3,26,0.01
2013-1-12,61,39,26,52,30,22,91,73,31,30.10,29.77,25,3,25,0.17
2013-1-13,32,25,20,22,18,13,85,73,57,30.37,29.99,12,1,13,0.01
2013-1-14,37,26,21,20,17,14,81,69,45,30.46,30.31,12,1,13,0.01
2013-1-15,35,28,21,21,17,12,87,66,41,30.31,30.17,13,1,15,0.01
2013-1-16,50,35,21,25,19,15,85,55,30,30.20,30.10,10,0,13,0.03
2013-1-17,54,41,32,34,29,20,79,61,39,30.46,30.18,17,2,17,0.00
2013-1-18,59,45,34,34,31,28,79,60,34,30.47,30.17,19,2,22,0.00
2013-1-19,67,50,43,39,36,34,71,59,33,30.18,30.06,15,2,15,0.00
2013-1-20,66,46,33,44,31,19,75,54,43,30.28,30.10,23,3,24,0.00
2013-1-21,42,32,25,19,17,14,66,53,34,30.40,30.27,14,3,17,0.00
2013-1-22,54,38,24,30,24,18,79,59,39,30.29,30.16,12,0,16,0.00
2013-1-23,64,43,31,44,32,25,82,67,47,30.23,30.11,7,0,10,0.00
2013-1-25,52,46,41,32,30,28,61,53,42,30.23,30.17,11,0,12,0.00
2013-1-26,54,45,35,36,32,28,77,60,44,30.24,30.07,16,2,19,0.00
2013-1-27,61,54,46,58,50,36,97,88,66,30.08,29.86,22,4,25,0.01
2013-1-28,74,68,58,64,62,56,94,83,67,29.92,29.76,20,5,24,0.00
2013-1-29,71,57,42,64,53,39,98,89,66,29.76,29.44,22,2,25,1.06
2013-1-30,42,37,28,40,29,24,90,75,55,30.06,29.59,18,1,26,0.00
2013-1-31,51,32,23,30,22,12,90,67,38,30.44,30.00,23,3,25,0.00
2013-2-1,45,31,18,25,15,4,66,52,31,30.44,30.14,15,1,19,0.00
2013-2-2,60,43,30,35,29,22,81,59,35,30.26,30.14,12,0,15,0.00
2013-2-3,58,49,41,32,28,23,66,45,27,30.30,29.92,16,1,17,0.00
2013-2-4,67,54,44,42,34,30,68,48,26,29.96,29.81,14,1,16,0.01
2013-2-5,70,50,34,45,35,30,88,60,26,30.04,29.90,6,0,7,0.00
2013-2-6,64,53,41,52,42,34,81,65,51,30.05,29.88,25,2,25,0.00
2013-2-7,61,51,43,56,47,38,94,85,74,30.14,29.83,16,3,20,0.02
2013-2-8,54,42,34,38,34,31,90,75,47,30.31,30.14,18,2,18,0.00
2013-2-9,44,41,39,43,38,34,96,86,74,30.15,29.73,22,3,24,0.09
2013-2-10,62,51,44,52,35,24,98,59,26,30.05,29.62,19,3,25,0.19
2013-2-11,57,44,35,28,26,23,72,51,30,30.22,30.04,11,0,13,0.00
2013-2-12,42,38,34,38,32,26,96,80,57,30.11,29.93,13,1,15,0.24
2013-2-13,56,43,35,38,33,28,97,73,40,30.03,29.94,13,1,15,0.01
2013-2-14,62,47,37,36,31,26,68,54,37,30.20,29.95,20,1,20,0.00
2013-2-15,46,38,31,32,21,11,76,52,26,30.39,30.20,19,2,29,0.00
2013-2-16,46,36,28,28,18,10,78,50,29,30.36,30.05,14,1,21,0.00
2013-2-17,69,53,34,36,30,22,76,45,22,30.05,29.76,22,4,28,0.00
2013-2-18,61,52,40,51,37,26,74,56,40,30.14,29.63,22,5,31,0.00
2013-2-19,54,41,30,27,24,22,78,51,31,30.34,30.14,10,0,12,0.00
2013-2-20,39,35,33,34,30,21,96,82,51,30.26,29.99,10,0,11,0.36
2013-2-21,36,33,27,35,31,22,98,92,78,29.98,29.67,19,2,24,0.71
2013-2-22,39,30,22,22,21,18,87,70,48,30.14,29.93,11,1,21,0.08
2013-2-23,49,34,23,28,23,18,85,65,38,30.11,29.94,10,0,11,0.01
2013-2-24,60,45,31,40,33,25,81,65,43,29.95,29.75,21,2,24,0.00
2013-2-25,46,39,33,38,35,32,97,88,66,29.82,29.45,23,5,31,1.13
2013-2-26,42,37,33,35,32,30,97,85,72,29.91,29.48,20,2,24,0.12
2013-2-27,48,38,32,33,29,26,89,72,43,30.14,29.90,14,1,19,0.00
2013-2-28,47,38,32,31,29,26,85,70,52,30.21,30.13,18,2,18,0.00
2013-3-1,40,35,31,28,24,18,72,64,52,30.31,30.19,19,2,19,0.00
2013-3-2,49,36,28,23,21,18,73,55,32,30.36,30.17,13,2,14,0.00
2013-3-3,63,48,32,34,29,22,72,49,30,30.17,29.67,21,3,26,0.00
2013-3-4,75,58,46,44,39,33,69,52,29,29.95,29.56,20,4,36,0.00
2013-3-5,50,42,36,37,25,17,88,53,31,30.36,29.98,25,3,27,0.08
2013-3-6,53,40,29,26,22,18,69,49,27,30.42,30.20,10,0,12,0.00
2013-3-7,66,52,36,32,29,26,70,44,24,30.21,30.06,22,3,27,0.00
2013-3-8,59,54,47,43,37,31,72,54,44,30.17,29.96,21,4,24,0.00
2013-3-9,62,58,54,58,50,37,96,76,44,29.96,29.65,26,3,28,0.44
2013-3-10,57,43,33,54,38,25,95,81,69,30.02,29.62,22,1,24,0.02
2013-3-11,53,40,30,27,22,14,82,53,22,30.03,29.96,11,0,14,0.00
2013-3-12,61,48,37,38,28,21,70,47,27,30.33,30.02,15,1,16,0.00
2013-3-13,60,45,33,28,25,19,78,46,24,30.47,30.30,12,0,16,0.00
2013-3-14,79,61,42,45,36,25,57,41,24,30.32,30.08,16,2,22,0.00
2013-3-15,83,69,55,50,45,43,71,45,25,30.10,29.76,21,3,26,0.00
2013-3-16,76,61,48,51,44,39,71,56,39,29.85,29.73,21,4,23,0.00
2013-3-17,49,44,41,43,41,37,94,89,70,29.84,29.68,20,2,25,0.00
2013-3-18,62,48,40,43,35,25,95,66,27,30.04,29.68,14,2,19,0.00
2013-3-19,60,48,40,31,28,24,66,48,29,30.25,30.00,21,1,21,0.00
2013-3-20,54,44,36,34,26,20,84,51,28,30.39,30.03,19,1,21,0.00
2013-3-21,43,40,38,36,29,21,90,66,42,30.06,29.73,17,2,21,0.05
2013-3-22,47,42,37,39,38,35,96,86,73,29.91,29.77,12,1,13,0.34
2013-3-23,43,41,38,42,39,36,97,94,84,29.90,29.72,14,1,17,0.04
2013-3-24,41,35,32,37,26,20,96,72,46,30.17,29.77,21,3,26,0.02
2013-3-25,40,34,29,24,21,17,77,59,42,30.37,30.16,16,2,20,0.00
2013-3-26,53,39,26,25,22,19,85,53,28,30.44,30.25,10,0,12,0.00
2013-3-27,67,52,35,34,29,24,67,43,27,30.27,30.07,22,3,30,0.00
2013-3-28,73,60,46,52,44,30,67,55,37,30.17,30.05,17,2,23,0.00
2013-3-29,72,61,53,58,55,49,95,81,61,30.13,30.05,12,0,16,0.28
2013-3-30,77,64,54,61,57,53,96,79,57,30.07,29.83,19,2,19,0.30
2013-3-31,72,60,52,58,48,42,94,66,37,30.00,29.87,22,2,25,0.00
2013-4-1,62,50,44,46,40,31,87,67,50,30.17,29.97,22,4,23,0.00
2013-4-2,45,41,38,40,37,31,96,87,58,30.22,30.14,15,2,23,0.39
2013-4-3,43,41,39,39,37,32,95,85,67,30.22,30.13,13,1,16,0.45
2013-4-4,61,49,39,42,38,31,96,70,36,30.18,30.08,13,1,16,0.10
2013-4-5,70,57,40,46,42,38,93,61,35,30.20,29.93,14,2,18,0.00
2013-4-6,77,65,57,53,50,45,71,58,38,29.94,29.78,25,3,26,0.00
2013-4-7,66,63,56,60,57,52,89,80,66,29.88,29.72,22,3,25,0.00
2013-4-8,74,69,62,63,60,58,93,76,66,29.76,29.65,21,4,22,0.00
2013-4-9,79,69,44,64,59,39,83,72,58,29.82,29.65,21,4,28,0.01
2013-4-10,47,39,36,42,36,32,95,89,82,29.97,29.79,16,1,18,0.46
2013-4-11,56,44,35,36,32,26,83,64,38,29.94,29.77,13,1,17,0.00
2013-4-12,64,53,39,37,33,28,78,49,31,30.02,29.82,14,1,15,0.00
2013-4-13,74,61,47,51,45,35,91,57,36,30.04,29.73,20,3,23,0.16
2013-4-14,81,69,58,59,51,44,69,53,37,29.74,29.50,25,4,32,0.01
2013-4-15,76,64,53,58,46,36,73,54,39,29.87,29.69,18,3,25,0.01
2013-4-16,59,53,50,52,48,43,91,82,70,29.98,29.83,16,2,17,0.00
2013-4-17,81,69,52,70,62,48,94,80,61,29.92,29.55,24,3,26,0.03
2013-4-18,65,46,41,64,39,27,97,78,56,30.09,29.53,24,2,25,1.53
2013-4-19,63,49,36,38,29,21,75,49,25,30.15,30.04,15,1,21,0.00
2013-4-20,72,57,41,42,36,28,86,50,21,30.16,30.03,19,1,24,0.00
2013-4-21,71,61,54,45,42,37,68,50,31,30.21,30.09,19,2,22,0.00
2013-4-22,76,64,50,53,47,42,77,56,41,30.14,29.86,20,2,25,0.00
2013-4-23,68,45,37,55,41,34,95,88,54,30.20,29.82,23,4,23,0.09
2013-4-24,61,46,35,34,30,22,89,57,27,30.31,30.17,15,1,16,0.00
2013-4-25,72,58,44,39,32,24,69,42,21,30.35,30.17,12,0,16,0.00
2013-4-26,63,57,53,53,46,39,96,71,42,30.18,30.05,12,5,18,0.13
2013-4-27,57,55,52,53,52,51,97,90,81,30.10,29.99,7,0,14,0.03
2013-4-28,81,65,53,59,54,48,88,68,40,30.03,29.83,13,0,14,0.00
2013-4-29,88,74,62,64,56,48,84,57,30,29.86,29.73,17,2,22,0.00
2013-4-30,85,75,66,61,56,47,74,53,29,29.82,29.75,22,3,26,0.00
2013-5-1,85,74,66,65,60,53,82,63,45,30.05,29.82,16,1,19,0.00
2013-5-2,69,45,36,51,40,35,94,82,61,30.37,30.05,24,6,28,0.23
2013-5-3,61,49,37,36,31,26,92,56,27,30.34,29.96,25,2,25,0.00
2013-5-4,49,45,40,46,40,33,94,82,57,30.04,29.89,11,1,13,0.09
2013-5-5,60,51,44,50,46,41,93,82,68,30.13,30.03,11,0,14,0.00
2013-5-6,70,57,49,55,51,47,96,82,53,30.13,30.02,8,0,9,0.00
2013-5-7,81,65,50,57,52,46,97,67,31,30.09,29.97,9,0,12,0.00
2013-5-8,84,71,59,62,55,48,85,59,34,30.01,29.87,20,2,24,0.08
2013-5-9,73,66,60,66,62,59,96,89,70,29.98,29.85,18,1,18,0.35
2013-5-10,72,65,58,65,58,52,97,80,58,30.07,29.92,14,1,17,0.30
2013-5-11,79,64,54,67,50,35,93,63,28,30.22,30.07,20,1,23,0.06
2013-5-12,75,62,51,47,40,32,66,46,25,30.28,30.13,14,0,14,0.00
2013-5-13,89,72,54,59,51,46,76,50,29,30.14,30.01,14,1,18,0.00
2013-5-14,89,78,67,58,53,50,57,43,30,30.05,29.92,26,2,26,0.00
2013-5-15,75,70,63,68,62,53,97,77,50,29.97,29.80,16,1,18,0.49
2013-5-16,77,68,62,69,63,61,96,87,64,29.87,29.80,9,0,11,0.01
2013-5-17,82,71,61,70,66,60,98,85,64,29.92,29.85,11,0,11,0.00
2013-5-18,88,78,70,76,72,69,95,82,64,29.88,29.74,18,1,18,0.00
2013-5-19,82,75,66,72,67,62,94,77,63,29.89,29.60,18,3,40,0.19
2013-5-20,84,76,71,73,70,66,91,80,68,29.79,29.63,16,3,32,0.02
2013-5-21,72,64,58,67,60,55,96,90,82,29.91,29.65,16,0,18,0.36
2013-5-22,80,67,55,60,57,54,97,72,42,29.94,29.80,11,0,13,0.00
2013-5-23,67,63,60,61,59,56,96,89,75,30.14,29.93,10,1,18,0.26
2013-5-24,80,70,60,67,62,58,97,78,63,30.21,30.11,12,1,14,0.00
2013-5-25,84,74,65,70,64,58,85,72,56,30.19,30.01,17,2,24,0.00
2013-5-26,84,76,69,71,68,64,90,76,60,30.08,29.93,26,3,26,0.00
2013-5-27,84,77,70,70,68,64,90,75,61,29.96,29.73,25,4,29,0.00
2013-5-28,82,78,74,69,67,66,81,71,62,29.82,29.73,30,3,30,0.00
2013-5-29,79,74,66,70,67,62,95,78,71,29.83,29.69,27,3,28,0.23
2013-5-30,83,72,64,73,68,63,97,89,70,29.77,29.65,21,2,32,1.14
2013-5-31,88,80,72,74,73,70,96,79,64,29.77,29.61,22,4,25,0.00
2013-6-1,82,72,66,71,61,54,97,71,42,30.02,29.65,18,1,20,0.01
2013-6-2,74,66,60,58,56,52,84,70,56,30.09,30.00,13,1,15,0.00
2013-6-3,81,69,55,66,60,53,94,74,53,30.04,29.86,16,0,17,0.00
2013-6-4,84,75,68,70,66,63,88,75,61,29.99,29.76,12,0,17,0.00
2013-6-5,84,74,67,69,67,65,97,78,57,29.99,29.74,13,1,17,0.00
2013-6-6,79,70,64,65,60,53,92,71,44,29.86,29.79,15,2,15,0.00
2013-6-7,82,72,62,59,56,53,79,60,40,29.90,29.79,15,0,17,0.00
2013-6-8,83,73,62,64,59,55,82,63,43,29.82,29.67,17,1,19,0.00
2013-6-9,90,79,70,66,61,54,81,56,33,29.79,29.67,15,0,17,0.00
2013-6-10,94,83,73,71,67,58,79,60,41,29.88,29.74,14,1,17,0.00
2013-6-11,94,85,76,72,69,64,74,59,39,29.95,29.87,19,3,21,0.00
2013-6-12,94,84,76,74,71,68,84,65,47,29.96,29.88,20,3,24,0.00
2013-6-13,98,85,77,74,71,68,79,64,44,30.03,29.92,10,0,13,0.00
2013-6-14,95,85,74,77,72,69,83,68,50,29.99,29.89,13,1,14,0.00
2013-6-15,86,79,73,76,73,69,92,83,67,30.00,29.92,17,3,22,0.03
2013-6-16,92,76,67,75,71,65,96,85,55,29.98,29.87,20,1,20,1.00
2013-6-17,79,72,67,70,68,66,97,86,71,29.99,29.83,13,1,20,0.49
2013-6-18,92,78,68,72,67,60,95,71,40,30.03,29.93,7,0,9,0.00
2013-6-19,86,78,67,70,67,64,92,71,54,30.03,29.93,14,0,16,0.00
2013-6-20,92,82,73,76,72,67,82,71,57,30.01,29.92,19,2,21,0.00
2013-6-21,93,84,77,75,71,66,85,67,42,30.03,29.95,17,2,23,0.00
2013-6-22,92,83,74,72,70,65,86,65,44,30.00,29.88,20,2,21,0.00
2013-6-23,92,84,77,72,70,67,83,66,47,29.93,29.86,19,3,23,0.00
2013-6-24,91,83,75,72,70,66,85,66,46,30.00,29.89,20,2,23,0.00
2013-6-25,89,83,77,74,72,70,83,70,57,29.92,29.79,18,3,27,0.00
2013-6-26,95,86,78,77,73,69,76,67,54,29.90,29.80,15,2,19,0.00
2013-6-27,100,88,79,79,74,64,84,65,47,29.95,29.84,13,0,22,0.00
2013-6-28,98,87,78,72,66,58,73,50,33,29.97,29.82,13,1,15,0.00
2013-6-29,92,83,74,63,58,52,68,44,29,29.92,29.81,18,1,21,0.00
2013-6-30,84,76,69,59,56,53,65,51,39,29.98,29.87,15,2,21,0.00
2013-7-1,85,75,66,61,55,46,76,52,28,30.06,29.98,17,1,19,0.00
2013-7-2,86,75,66,58,53,48,66,48,30,30.09,30.02,10,0,15,0.00
2013-7-3,88,74,61,59,54,48,80,54,27,30.10,29.98,5,0,7,0.00
2013-7-4,90,77,64,65,60,54,78,57,36,30.03,29.92,17,1,17,0.00
2013-7-5,91,80,69,67,62,58,78,57,35,30.01,29.89,10,0,13,0.00
2013-7-6,88,80,73,68,64,63,74,59,46,29.97,29.91,14,1,15,0.00
2013-7-7,93,83,74,71,66,63,76,58,39,30.01,29.94,12,1,14,0.00
2013-7-8,94,84,75,75,70,67,79,64,47,30.07,29.98,11,1,15,0.00
2013-7-9,97,88,78,73,71,69,77,59,41,30.05,29.93,14,2,16,0.00
2013-7-10,102,90,80,73,68,65,68,50,33,29.98,29.89,9,0,11,0.00
2013-7-11,102,88,78,76,72,70,82,62,39,29.98,29.88,8,0,15,0.00
2013-7-12,96,86,77,75,72,70,79,64,47,30.00,29.93,11,0,13,0.00
2013-7-13,96,85,75,71,67,63,73,57,40,30.03,29.91,13,1,14,0.00
2013-7-14,90,79,72,70,63,59,76,60,40,30.03,29.92,11,1,14,0.03
2013-7-15,79,72,65,70,66,62,96,82,68,30.16,30.03,17,1,18,0.63
2013-7-16,91,79,71,73,70,67,93,75,48,30.23,30.14,13,0,16,0.03
2013-7-17,96,84,74,74,70,68,89,67,42,30.29,30.17,9,0,12,0.00
2013-7-18,96,85,75,74,71,66,88,65,41,30.19,30.01,9,0,10,0.00
2013-7-19,98,86,76,75,71,66,83,63,37,30.04,29.89,11,0,12,0.02
2013-7-20,95,84,74,74,70,68,85,64,42,29.95,29.81,12,1,15,0.00
2013-7-21,90,79,72,78,72,66,98,80,62,29.94,29.81,13,0,16,0.04
2013-7-22,96,85,75,80,74,71,91,69,52,29.91,29.79,18,1,27,0.50
2013-7-23,101,89,69,76,74,65,88,61,41,29.94,29.78,21,1,39,0.27
2013-7-24,91,78,68,73,70,65,97,76,52,30.02,29.86,27,0,37,0.42
2013-7-25,88,80,72,74,72,67,92,76,54,30.09,29.98,5,0,6,0.00
2013-7-26,82,75,70,73,71,68,96,87,73,30.03,29.93,10,0,14,0.46
2013-7-27,87,75,67,69,65,60,98,74,44,30.07,29.95,10,0,13,0.00
2013-7-28,88,77,68,70,65,60,82,68,53,30.02,29.94,11,1,14,0.00
2013-7-29,88,80,72,75,72,66,87,76,65,30.00,29.91,16,2,22,0.01
2013-7-30,95,80,71,77,73,70,97,81,54,30.03,29.93,14,1,14,0.64
2013-7-31,92,83,76,77,74,70,94,74,53,30.07,30.00,11,1,14,0.00
2013-8-1,96,84,72,72,69,62,90,64,34,30.08,29.94,10,0,10,0.00
2013-8-2,94,84,77,79,75,70,87,74,56,29.96,29.83,14,2,14,0.00
2013-8-3,86,80,74,75,73,71,94,80,64,30.04,29.87,13,1,14,0.22
2013-8-4,92,82,77,79,76,72,92,82,66,30.08,29.94,10,1,12,0.00
2013-8-5,100,86,76,76,74,73,91,70,46,29.97,29.81,14,2,15,0.00
2013-8-6,99,89,78,75,72,69,84,59,43,29.86,29.77,14,1,16,0.00
2013-8-7,97,87,79,79,74,71,80,66,50,29.89,29.81,11,1,13,0.00
2013-8-8,86,79,71,78,73,69,94,82,67,29.94,29.82,10,1,13,0.16
2013-8-9,87,77,70,75,72,69,97,84,64,30.05,29.89,15,1,22,0.70
2013-8-10,86,76,68,72,69,65,94,80,61,30.12,30.03,10,1,11,0.00
2013-8-11,94,82,73,75,72,69,91,75,48,30.08,30.00,5,0,7,0.00
2013-8-12,86,79,73,76,74,70,96,84,69,30.07,29.95,16,0,18,0.21
2013-8-13,83,75,70,75,71,68,97,89,73,30.05,29.96,19,0,19,0.67
2013-8-14,86,75,66,70,65,61,91,72,49,30.12,30.03,6,0,11,0.00
2013-8-15,87,73,63,66,63,60,91,71,47,30.11,29.99,12,0,13,0.20
2013-8-16,84,73,64,67,64,63,98,76,51,30.10,29.98,11,0,15,0.19
2013-8-17,84,73,63,64,62,58,92,69,44,30.14,30.04,12,0,12,0.00
2013-8-18,88,75,63,68,64,61,94,70,44,30.13,30.04,9,0,10,0.00
2013-8-19,89,77,66,69,66,63,94,72,47,30.10,29.99,12,0,13,0.00
2013-8-20,92,79,68,71,67,65,92,70,42,30.08,29.99,10,0,15,0.00
2013-8-21,93,81,68,71,67,61,93,65,36,30.09,30.01,13,1,13,0.00
2013-8-22,96,83,72,73,70,67,89,66,44,30.09,29.99,10,0,11,0.00
2013-8-23,96,81,74,76,71,69,91,73,44,30.07,29.97,7,0,9,0.25
2013-8-24,95,83,73,75,72,70,93,71,46,30.12,30.01,9,0,12,0.00
2013-8-25,96,84,74,75,72,70,90,69,46,30.19,30.09,12,0,13,0.00
2013-8-26,93,83,74,73,71,68,89,68,47,30.19,30.08,11,1,14,0.00
2013-8-27,91,82,73,72,69,66,80,66,50,30.12,30.01,14,1,15,0.00
2013-8-28,93,83,73,73,71,69,91,69,49,30.08,30.00,13,1,17,0.00
2013-8-29,100,87,78,73,71,66,82,61,36,30.06,29.97,10,0,13,0.00
2013-8-30,100,88,79,72,70,67,78,57,36,29.99,29.86,12,1,14,0.00
2013-8-31,102,89,78,73,70,67,71,55,36,29.89,29.78,12,1,13,0.00
2013-9-1,94,85,78,75,71,68,76,65,52,29.91,29.79,12,0,16,0.00
2013-9-2,89,80,72,73,65,59,87,61,38,30.02,29.90,11,1,15,0.00
2013-9-3,93,79,66,66,62,57,87,59,33,30.06,29.97,6,0,11,0.00
2013-9-4,95,80,66,70,64,60,87,60,38,30.12,30.02,4,0,7,0.00
2013-9-5,97,82,68,66,64,61,82,58,33,30.16,30.05,10,0,10,0.00
2013-9-6,97,82,69,67,64,62,80,57,34,30.12,29.98,7,0,11,0.00
2013-9-7,100,85,72,69,65,60,77,54,30,30.02,29.91,13,0,13,0.00
2013-9-8,97,86,75,70,67,63,73,53,34,29.97,29.87,12,1,14,0.00
2013-9-9,96,85,72,69,64,61,75,51,35,29.99,29.91,12,1,19,0.00
2013-9-10,94,83,75,68,65,60,71,56,36,30.10,29.95,14,1,22,0.00
2013-9-11,97,83,70,68,65,61,85,58,34,30.14,30.02,9,0,13,0.00
2013-9-12,97,82,74,70,69,66,85,65,39,30.09,29.99,11,0,17,0.00
2013-9-13,89,78,69,69,60,51,83,56,36,30.07,29.96,12,1,14,0.00
2013-9-14,87,74,62,62,57,53,76,57,40,30.05,29.94,10,0,11,0.00
2013-9-15,90,78,66,68,61,53,67,55,46,30.03,29.95,13,1,15,0.00
2013-9-16,89,77,71,70,68,66,90,74,50,30.18,30.01,14,1,16,0.00
2013-9-17,86,74,69,72,68,66,94,83,57,30.12,29.95,12,0,15,0.12
2013-9-18,92,81,73,73,70,68,86,71,48,30.00,29.88,16,1,20,0.00
2013-9-19,90,78,72,74,70,68,91,78,54,29.97,29.84,19,1,22,0.11
2013-9-20,72,68,62,68,62,55,97,82,57,30.01,29.93,16,1,17,0.38
2013-9-21,83,68,56,56,54,50,88,63,35,30.03,29.91,7,0,9,0.00
2013-9-22,82,67,53,56,52,48,94,62,33,29.97,29.84,10,0,10,0.00
2013-9-23,81,69,55,58,54,51,88,62,38,29.89,29.77,14,1,17,0.00
2013-9-24,83,72,63,59,56,54,75,60,40,29.90,29.85,15,1,19,0.00
2013-9-25,88,72,59,61,59,55,93,66,34,29.91,29.79,2,0,4,0.00
2013-9-26,93,77,64,63,60,58,86,60,33,29.89,29.80,16,1,19,0.00
2013-9-27,89,78,66,65,61,57,85,59,36,29.97,29.83,16,2,19,0.00
2013-9-28,78,68,57,68,62,56,96,82,60,30.09,29.84,15,2,19,1.07
2013-9-29,79,63,53,59,54,48,98,76,38,30.09,29.94,10,0,12,0.01
2013-9-30,84,68,53,62,56,51,96,70,37,29.94,29.83,7,0,12,0.00
2013-10-1,87,75,64,71,66,62,98,77,47,29.95,29.84,13,1,19,0.00
2013-10-2,86,77,69,72,69,67,97,79,59,30.00,29.86,16,2,16,0.00
2013-10-3,87,78,70,73,70,68,91,78,61,29.91,29.77,19,3,21,0.00
2013-10-4,86,79,73,71,69,67,90,74,54,29.88,29.78,22,4,23,0.00
2013-10-5,78,59,50,68,48,39,96,70,38,30.10,29.87,15,2,19,0.57
2013-10-6,68,57,49,47,42,37,81,59,40,30.04,29.98,14,0,18,0.00
2013-10-7,79,62,50,49,42,36,77,52,25,30.17,30.03,6,0,10,0.00
2013-10-8,76,62,50,53,49,46,91,65,38,30.12,30.02,14,1,19,0.00
2013-10-9,79,64,50,59,53,48,92,68,47,30.08,30.00,14,1,15,0.00
2013-10-10,81,67,55,62,56,51,92,70,48,30.06,29.88,18,1,20,0.00
2013-10-11,82,71,61,68,64,56,88,78,63,29.88,29.79,19,2,23,0.00
2013-10-12,76,67,58,68,57,52,93,71,50,30.14,29.86,15,2,20,0.04
2013-10-13,77,68,62,65,57,50,74,67,62,30.27,30.15,10,0,10,0.00
2013-10-14,67,63,58,64,59,52,97,87,66,30.20,29.91,13,1,14,0.78
2013-10-15,67,59,55,66,53,45,97,81,63,30.09,29.88,16,2,20,0.06
2013-10-16,62,53,46,46,43,40,90,70,51,30.15,30.03,13,1,15,0.00
2013-10-17,69,54,43,50,45,41,95,75,42,30.06,29.95,8,0,11,0.00
2013-10-18,56,48,41,48,44,39,95,86,70,30.14,29.99,16,3,20,0.15
2013-10-19,66,49,35,43,38,34,96,71,35,30.15,30.00,9,0,10,0.00
2013-10-20,70,57,44,46,42,37,84,59,32,30.00,29.84,17,1,21,0.00
2013-10-21,59,52,42,48,43,37,88,72,48,30.10,29.93,16,1,18,0.00
2013-10-22,73,56,42,48,43,38,89,63,37,30.09,29.97,12,1,15,0.00
2013-10-23,69,55,43,49,43,38,84,66,40,30.17,29.99,9,0,13,0.00
2013-10-24,58,50,45,46,38,32,88,65,44,30.39,30.06,15,2,20,0.00
2013-10-25,61,49,38,42,35,32,79,61,37,30.45,30.20,15,0,16,0.00
2013-10-26,71,56,47,58,49,41,93,77,61,30.20,30.07,11,1,11,0.00
2013-10-27,72,55,41,53,40,29,93,62,23,30.11,29.96,10,0,10,0.00
2013-10-28,72,61,50,59,56,47,95,82,59,30.12,29.99,11,1,15,0.00
2013-10-29,74,69,62,68,65,58,93,87,79,30.06,29.93,17,3,20,0.01
2013-10-30,71,67,64,68,65,62,98,92,87,29.99,29.75,24,2,26,0.99
2013-10-31,70,63,54,65,56,46,98,79,51,29.80,29.57,18,1,22,0.34
2013-11-1,71,58,48,46,43,40,84,60,34,30.04,29.78,12,0,15,0.00
2013-11-2,63,52,42,42,37,31,82,59,32,30.25,30.04,13,1,21,0.00
2013-11-3,61,51,38,44,40,35,91,68,44,30.18,29.95,20,2,23,0.00
2013-11-4,64,58,52,55,50,43,91,77,64,30.09,29.92,23,3,25,0.00
2013-11-5,64,59,56,62,58,54,98,96,90,30.09,29.90,18,2,18,0.46
2013-11-6,64,46,38,60,40,36,96,82,57,30.35,29.90,16,2,18,0.37
2013-11-7,70,48,35,44,38,33,96,71,30,30.43,30.31,5,0,9,0.00
2013-11-8,67,54,40,41,38,32,89,58,29,30.32,30.03,22,2,24,0.00
2013-11-9,69,57,49,47,44,38,82,64,36,30.25,30.04,11,1,11,0.00
2013-11-10,71,58,48,50,47,45,90,70,43,30.35,30.24,9,0,9,0.00
2013-11-11,73,58,43,56,49,38,90,74,51,30.43,30.15,26,3,26,0.00
2013-11-12,43,35,29,38,21,16,80,58,40,30.76,30.43,23,5,30,0.00
2013-11-13,52,38,25,26,22,19,88,57,29,30.67,30.28,13,1,18,0.00
2013-11-14,55,44,33,36,28,23,70,54,33,30.28,30.00,18,2,20,0.00
2013-11-15,62,54,47,49,44,36,83,67,62,30.00,29.78,16,2,20,0.01
2013-11-16,74,66,58,61,56,48,87,70,61,29.79,29.55,28,2,29,0.00
2013-11-17,74,68,56,61,43,20,70,45,19,30.10,29.54,11,0,13,0.00
2013-11-18,66,57,47,40,27,14,60,33,20,30.25,30.09,11,0,11,0.00
2013-11-19,59,54,52,34,30,27,48,39,30,30.20,29.98,14,1,19,0.00
2013-11-20,60,56,48,46,38,31,61,51,40,29.99,29.84,22,3,26,0.00
2013-11-21,60,52,36,53,45,34,94,77,61,30.33,29.92,25,6,25,0.00
2013-11-22,36,34,31,34,30,26,92,88,79,30.52,30.33,19,6,20,0.08
2013-11-23,40,34,28,28,23,14,86,67,42,30.65,30.50,16,4,18,0.01
2013-11-24,32,29,26,20,16,12,67,58,55,30.64,30.31,0,0,0,0.00
2013-11-25,36,34,30,32,27,18,86,78,56,30.32,30.17,0,0,0,0.00
2013-11-26,49,39,30,32,27,15,84,64,47,30.36,30.14,5,0,5,0.00
2013-11-27,38,30,22,17,14,11,67,51,34,30.44,30.27,0,0,0,0.00
2013-11-28,57,41,28,33,25,16,68,55,38,30.39,30.24,0,0,1,0.00
2013-11-29,56,42,27,32,27,23,88,58,31,30.44,30.25,3,0,4,0.00
2013-11-30,61,48,38,47,40,30,92,77,59,30.26,30.06,0,0,3,0.07
2013-12-1,56,49,41,52,47,40,97,93,88,30.09,29.88,0,0,0,0.00
2013-12-2,58,51,44,51,47,42,96,88,68,29.87,29.65,0,0,0,0.00
2013-12-3,60,51,45,54,49,44,98,92,78,29.64,29.50,0,0,0,0.00
2013-12-4,50,42,30,48,38,24,97,86,76,30.01,29.48,3,0,4,0.01
2013-12-5,31,25,22,24,17,14,87,72,58,30.26,30.01,0,0,0,0.00
2013-12-6,24,20,15,18,15,7,92,80,66,30.55,30.22,0,0,0,0.00
2013-12-7,23,17,10,16,9,4,79,70,62,30.61,30.27,0,0,0,0.02
2013-12-8,30,27,23,29,24,15,94,88,74,30.26,29.97,0,0,0,0.00
2013-12-9,28,24,20,24,19,16,89,80,69,30.37,30.15,0,0,0,0.00
2013-12-10,36,26,14,23,18,11,91,73,54,30.40,30.21,0,0,0,0.17
2013-12-11,39,29,20,29,22,17,93,75,62,30.58,30.23,1,0,9,0.10
2013-12-12,44,32,18,29,23,15,90,72,54,30.57,30.19,0,0,4,0.08
2013-12-13,41,38,35,38,34,29,96,87,74,30.18,29.80,4,0,7,0.52
2013-12-14,40,35,26,39,31,24,97,87,71,30.23,29.81,0,0,0,0.00
2013-12-15,58,41,23,36,29,21,94,67,37,30.23,30.08,0,0,0,0.01
2013-12-16,68,51,37,37,32,30,76,52,25,30.13,30.03,0,0,0,0.00
2013-12-17,61,46,37,37,32,30,79,61,36,30.28,30.11,0,0,0,0.00
2013-12-18,68,50,32,44,36,28,87,61,34,30.24,29.89,5,0,7,0.00
2013-12-19,63,58,53,57,51,44,87,78,65,29.88,29.65,4,0,10,0.00
2013-12-20,61,38,29,58,35,26,94,89,82,29.95,29.65,0,0,4,0.10
2013-12-21,33,32,30,32,31,28,97,96,94,29.83,29.50,0,0,0,0.00
2013-12-22,32,29,27,31,28,25,97,94,92,30.36,29.74,0,0,0,0.00
2013-12-23,30,25,20,27,23,18,93,91,86,30.57,30.35,0,0,0,0.00
2013-12-24,38,28,16,36,25,14,94,90,85,30.55,30.16,0,0,0,0.00
2013-12-25,40,33,27,37,31,26,96,92,86,30.38,30.24,0,0,0,0.01
2013-12-26,51,38,23,39,30,22,97,77,51,30.38,30.26,0,0,2,0.00
2013-12-27,59,43,30,35,30,26,88,62,34,30.38,30.26,0,0,0,0.00
2013-12-28,58,45,32,41,34,28,89,67,44,30.26,29.90,1,0,4,0.00
2013-12-29,43,32,22,39,23,7,88,70,52,30.29,29.91,1,0,6,0.00
2013-12-30,37,26,16,19,13,6,72,57,45,30.34,30.21,0,0,0,0.00
2013-12-31,56,38,22,29,22,17,84,56,25,30.34,30.12,7,0,7,0.00
2014-1-1,54,39,20,36,28,15,85,65,49,30.24,29.86,4,0,9,0.00
2014-1-2,32,23,14,17,13,8,85,66,48,30.44,30.24,2,0,4,0.00